Time;durP1;ratioP1;P1;durP2;ratioP2;P2;SDS_P1;SDS_P2;PMS_P1;PMS_P2;Temp;Humidity;BMP_temperature;BMP_pressure;BME280_temperature;BME280_humidity;BME280_pressure;Samples;Min_cycle;Max_cycle;Signal;HPM_P1;HPM_P2
2022/03/27 00:01:30;;;;;;;27.05;15.43;;;15.20;38.20;;;;;;5032393;28;20112;-58
2022/03/27 00:03:56;;;;;;;33.45;16.33;;;15.20;38.20;;;;;;5032518;28;20126;-57
2022/03/27 00:06:22;;;;;;;29.38;15.45;;;15.20;38.50;;;;;;5032825;28;20038;-56
2022/03/27 00:08:48;;;;;;;32.00;17.05;;;15.20;38.70;;;;;;5032577;28;20037;-57
2022/03/27 00:11:26;;;;;;;29.20;16.70;;;15.20;38.90;;;;;;5032638;28;20112;-54
2022/03/27 00:14:03;;;;;;;27.13;16.23;;;15.10;38.80;;;;;;5014671;28;20486;-56
2022/03/27 00:16:29;;;;;;;26.98;15.88;;;15.10;39.00;;;;;;5033377;28;20033;-57
2022/03/27 00:18:55;;;;;;;30.50;16.63;;;15.10;38.80;;;;;;5032725;28;20116;-59
2022/03/27 00:21:21;;;;;;;29.17;15.80;;;15.10;38.90;;;;;;5032659;28;20116;-58
2022/03/27 00:23:48;;;;;;;27.33;16.17;;;15.10;39.00;;;;;;5032769;28;20028;-57
2022/03/27 00:26:15;;;;;;;30.52;16.75;;;15.10;39.20;;;;;;5029349;28;20467;-57
2022/03/27 00:28:41;;;;;;;28.88;16.75;;;15.20;39.20;;;;;;5031801;28;20045;-59
2022/03/27 00:31:09;;;;;;;26.42;15.73;;;15.20;39.30;;;;;;5031295;28;20025;-60
2022/03/27 00:33:36;;;;;;;30.33;16.05;;;15.10;39.50;;;;;;5031540;28;20021;-57
2022/03/27 00:36:04;;;;;;;30.60;16.00;;;15.20;39.50;;;;;;5030848;28;20032;-54
2022/03/27 00:38:30;;;;;;;26.25;15.57;;;15.20;39.50;;;;;;5031505;28;20471;-56
2022/03/27 00:40:57;;;;;;;30.05;15.85;;;15.30;39.60;;;;;;5014124;28;20034;-59
2022/03/27 00:43:24;;;;;;;28.13;14.90;;;15.30;39.50;;;;;;5031001;28;20090;-57
2022/03/27 00:45:51;;;;;;;32.55;15.23;;;15.30;39.50;;;;;;5031248;28;20030;-57
2022/03/27 00:48:18;;;;;;;28.15;16.75;;;15.30;39.70;;;;;;5013397;28;20506;-60
2022/03/27 00:50:46;;;;;;;29.73;15.93;;;15.40;39.80;;;;;;5013544;28;20026;-55
2022/03/27 00:53:11;;;;;;;25.70;15.23;;;15.40;39.90;;;;;;5031282;28;20026;-55
2022/03/27 00:55:37;;;;;;;24.80;15.93;;;15.50;39.90;;;;;;5013484;28;20032;-58
2022/03/27 00:58:04;;;;;;;27.08;16.17;;;15.50;39.90;;;;;;5030502;28;20041;-57
2022/03/27 01:00:39;;;;;;;24.50;15.93;;;15.50;40.00;;;;;;5012809;28;20121;-60
2022/03/27 01:03:06;;;;;;;28.08;15.70;;;15.50;39.90;;;;;;5030620;28;20478;-57
2022/03/27 01:05:32;;;;;;;33.20;16.05;;;15.60;40.00;;;;;;5012958;28;20030;-55
2022/03/27 01:08:01;;;;;;;32.47;17.23;;;15.60;40.10;;;;;;5032009;28;20021;-58
2022/03/27 01:10:27;;;;;;;30.98;19.30;;;15.60;39.90;;;;;;5034704;28;20108;-57
2022/03/27 01:12:53;;;;;;;29.98;18.77;;;15.60;39.50;;;;;;5034866;28;20116;-57
2022/03/27 01:15:41;;;;;;;30.48;17.30;;;15.60;39.50;;;;;;5016504;28;20478;-58
2022/03/27 01:18:07;;;;;;;30.50;18.33;;;15.60;39.70;;;;;;5034085;28;20120;-58
2022/03/27 01:20:35;;;;;;;32.30;17.98;;;15.60;39.60;;;;;;5034898;28;20131;-57
2022/03/27 01:23:06;;;;;;;30.02;17.08;;;15.60;39.80;;;;;;5034168;28;20033;-62
2022/03/27 01:25:32;;;;;;;29.67;17.17;;;15.60;39.90;;;;;;5015272;28;20029;-56
2022/03/27 01:27:57;;;;;;;30.33;17.48;;;15.60;40.20;;;;;;5033085;28;20360;-58
2022/03/27 01:30:23;;;;;;;28.95;17.70;;;15.60;40.40;;;;;;5032717;28;20022;-58
2022/03/27 01:32:51;;;;;;;29.50;17.80;;;15.60;40.30;;;;;;5033231;28;20060;-56
2022/03/27 01:35:19;;;;;;;28.85;17.20;;;15.60;40.70;;;;;;5033630;28;20017;-56
2022/03/27 01:37:46;;;;;;;29.77;17.25;;;15.60;40.70;;;;;;5034028;28;20055;-59
2022/03/27 01:40:12;;;;;;;34.33;17.77;;;15.60;40.60;;;;;;5015473;28;20091;-60
2022/03/27 01:42:38;;;;;;;29.25;17.75;;;15.60;40.50;;;;;;5034064;28;20026;-58
2022/03/27 01:45:04;;;;;;;31.95;18.40;;;15.60;40.40;;;;;;5016051;28;20072;-62
2022/03/27 01:47:30;;;;;;;28.08;18.77;;;15.60;40.30;;;;;;5034449;28;20026;-55
2022/03/27 01:49:55;;;;;;;29.48;19.38;;;15.50;40.40;;;;;;5033918;28;20095;-52
2022/03/27 01:52:22;;;;;;;33.15;19.05;;;15.50;40.40;;;;;;5015287;28;20522;-55
2022/03/27 01:54:47;;;;;;;36.97;20.90;;;15.50;40.40;;;;;;5016426;28;20029;-58
2022/03/27 01:57:13;;;;;;;37.95;21.67;;;15.40;40.30;;;;;;5032687;28;20036;-55
2022/03/27 01:59:39;;;;;;;39.28;22.15;;;15.30;40.20;;;;;;5016247;28;20021;-57
2022/03/27 02:02:05;;;;;;;33.38;22.13;;;15.30;40.20;;;;;;5015968;28;20056;-64
2022/03/27 02:04:31;;;;;;;43.03;24.23;;;15.20;40.00;;;;;;5015570;28;20025;-58
2022/03/27 02:06:56;;;;;;;43.95;24.05;;;15.10;40.00;;;;;;5033919;28;20125;-56
2022/03/27 02:09:22;;;;;;;41.95;24.08;;;15.00;40.00;;;;;;5015246;28;20581;-56
2022/03/27 02:11:48;;;;;;;37.28;22.73;;;15.00;40.00;;;;;;5033454;28;20036;-59
2022/03/27 02:14:14;;;;;;;35.15;21.58;;;14.90;40.10;;;;;;5032656;28;20037;-59
2022/03/27 02:16:40;;;;;;;33.83;21.38;;;14.90;40.30;;;;;;5033249;28;20378;-59
2022/03/27 02:19:08;;;;;;;34.72;22.17;;;14.90;40.50;;;;;;5014847;28;20034;-63
2022/03/27 02:21:34;;;;;;;38.25;20.92;;;14.90;40.70;;;;;;5034038;28;20064;-58
2022/03/27 02:24:03;;;;;;;33.75;20.05;;;14.80;40.90;;;;;;5034018;28;20021;-54
2022/03/27 02:26:30;;;;;;;35.53;19.88;;;14.80;41.80;;;;;;5032719;28;20021;-55
2022/03/27 02:28:55;;;;;;;27.17;18.42;;;14.60;42.10;;;;;;5015253;28;20030;-58
2022/03/27 02:31:21;;;;;;;32.33;19.50;;;14.60;42.30;;;;;;5032488;28;20041;-59
2022/03/27 02:33:47;;;;;;;36.17;20.65;;;14.50;42.30;;;;;;5032764;28;20029;-58
2022/03/27 02:36:13;;;;;;;33.47;19.98;;;14.50;42.30;;;;;;5032486;28;20021;-59
2022/03/27 02:38:40;;;;;;;30.67;20.08;;;14.50;42.30;;;;;;5033328;28;20036;-58
2022/03/27 02:41:06;;;;;;;28.80;18.63;;;14.50;42.50;;;;;;5032535;28;20030;-62
2022/03/27 02:43:33;;;;;;;35.78;19.48;;;14.50;42.60;;;;;;5014986;28;20454;-58
2022/03/27 02:45:59;;;;;;;33.83;22.55;;;14.50;42.60;;;;;;5015691;28;20462;-57
2022/03/27 02:48:25;;;;;;;32.75;19.77;;;14.40;43.30;;;;;;5014539;28;20036;-58
2022/03/27 02:50:51;;;;;;;34.15;21.13;;;14.30;43.20;;;;;;5032910;28;20021;-55
2022/03/27 02:53:16;;;;;;;39.92;21.63;;;14.30;43.40;;;;;;5014549;28;20378;-56
2022/03/27 02:55:42;;;;;;;37.53;22.65;;;14.30;43.40;;;;;;5032705;28;20075;-57
2022/03/27 02:58:08;;;;;;;38.85;21.90;;;14.20;43.60;;;;;;5013898;28;20044;-63
2022/03/27 03:00:34;;;;;;;36.17;22.17;;;14.20;43.50;;;;;;5032478;28;20021;-55
2022/03/27 03:03:00;;;;;;;38.05;22.75;;;14.20;43.30;;;;;;5032163;28;20386;-58
2022/03/27 03:05:26;;;;;;;46.47;23.08;;;14.10;43.30;;;;;;5031750;28;20025;-58
2022/03/27 03:07:51;;;;;;;40.78;23.08;;;14.20;43.50;;;;;;5032260;28;20364;-55
2022/03/27 03:10:18;;;;;;;34.35;22.25;;;14.10;43.80;;;;;;5031828;28;20364;-56
2022/03/27 03:12:44;;;;;;;36.70;22.65;;;14.00;44.30;;;;;;5032145;28;20057;-48
2022/03/27 03:15:10;;;;;;;34.63;21.42;;;14.00;44.40;;;;;;5015008;28;20033;-49
2022/03/27 03:17:37;;;;;;;36.05;22.65;;;14.00;44.70;;;;;;5014429;28;20025;-50
2022/03/27 03:20:04;;;;;;;33.88;21.10;;;13.90;45.20;;;;;;5015041;28;20036;-51
2022/03/27 03:22:30;;;;;;;30.92;21.38;;;13.90;45.50;;;;;;5032492;28;20029;-49
2022/03/27 03:24:56;;;;;;;30.88;19.15;;;13.80;46.50;;;;;;5015232;28;20025;-49
2022/03/27 03:27:21;;;;;;;27.85;17.50;;;13.80;47.70;;;;;;5032259;28;20032;-53
2022/03/27 03:29:47;;;;;;;26.48;16.45;;;13.60;49.70;;;;;;5032283;28;20029;-48
2022/03/27 03:32:13;;;;;;;22.10;16.10;;;13.60;50.00;;;;;;5013747;28;20385;-47
2022/03/27 03:34:39;;;;;;;24.17;15.55;;;13.50;51.10;;;;;;5014997;28;20366;-53
2022/03/27 03:37:05;;;;;;;24.90;14.82;;;13.50;52.00;;;;;;5032674;28;20028;-51
2022/03/27 03:39:30;;;;;;;21.75;14.02;;;13.40;53.20;;;;;;5032352;28;20021;-54
2022/03/27 03:41:56;;;;;;;26.75;14.30;;;13.30;54.00;;;;;;5032491;28;20017;-55
2022/03/27 03:44:22;;;;;;;22.42;14.48;;;13.30;54.30;;;;;;5031850;28;20043;-52
2022/03/27 03:46:48;;;;;;;25.65;14.45;;;13.30;54.40;;;;;;5031960;28;20457;-51
2022/03/27 03:49:14;;;;;;;24.88;14.38;;;13.40;53.80;;;;;;5031863;28;20026;-54
2022/03/27 03:51:40;;;;;;;26.45;14.75;;;13.50;53.40;;;;;;5014989;28;20021;-52
2022/03/27 03:54:09;;;;;;;22.48;15.30;;;13.60;52.90;;;;;;5032676;28;20024;-54
2022/03/27 03:56:36;;;;;;;25.88;16.67;;;13.60;53.00;;;;;;5032043;28;20036;-52
2022/03/27 03:59:02;;;;;;;26.33;17.73;;;13.70;51.90;;;;;;5032457;28;20018;-49
2022/03/27 04:01:27;;;;;;;26.40;17.75;;;13.70;51.30;;;;;;5013952;28;20032;-52
2022/03/27 04:03:53;;;;;;;26.25;17.73;;;13.80;50.80;;;;;;5031221;28;20454;-54
2022/03/27 04:06:20;;;;;;;37.08;17.55;;;13.90;50.40;;;;;;5031457;28;20022;-54
2022/03/27 04:08:45;;;;;;;29.20;19.02;;;13.90;49.70;;;;;;5013440;28;20033;-53
2022/03/27 04:11:16;;;;;;;30.92;17.50;;;14.00;49.10;;;;;;5031968;28;20032;-68
2022/03/27 04:13:43;;;;;;;23.70;16.15;;;13.90;49.50;;;;;;5032604;28;20128;-56
2022/03/27 04:16:10;;;;;;;25.20;15.50;;;13.90;49.60;;;;;;5031890;28;20025;-50
2022/03/27 04:18:35;;;;;;;22.15;14.80;;;14.00;49.50;;;;;;4997659;28;20500;-54
2022/03/27 04:21:01;;;;;;;22.77;15.15;;;14.00;49.50;;;;;;5032439;28;20029;-52
2022/03/27 04:23:26;;;;;;;24.30;14.95;;;14.00;49.50;;;;;;5014135;28;20071;-53
2022/03/27 04:25:52;;;;;;;24.95;15.52;;;13.90;49.90;;;;;;5032040;28;20489;-53
2022/03/27 04:28:18;;;;;;;26.38;15.30;;;13.90;50.50;;;;;;5031618;28;20021;-53
2022/03/27 04:30:44;;;;;;;24.15;14.88;;;14.00;49.90;;;;;;5032310;28;20025;-52
2022/03/27 04:33:10;;;;;;;22.63;15.60;;;14.00;50.00;;;;;;5014195;28;20026;-53
2022/03/27 04:35:36;;;;;;;23.45;15.00;;;13.90;50.20;;;;;;5031796;28;20026;-53
2022/03/27 04:38:01;;;;;;;19.33;14.43;;;14.00;50.00;;;;;;5032084;28;20032;-53
2022/03/27 04:40:27;;;;;;;19.98;13.48;;;14.00;50.40;;;;;;5031389;28;20042;-52
2022/03/27 04:42:53;;;;;;;23.17;15.13;;;14.00;50.90;;;;;;5034365;28;20017;-53
2022/03/27 04:45:19;;;;;;;19.90;13.45;;;14.00;51.00;;;;;;5035470;28;20017;-55
2022/03/27 04:47:44;;;;;;;22.23;13.35;;;13.90;51.70;;;;;;5018149;28;20113;-54
2022/03/27 04:50:10;;;;;;;21.08;13.38;;;13.80;51.80;;;;;;5035804;28;20056;-52
2022/03/27 04:52:39;;;;;;;19.35;13.15;;;13.80;52.10;;;;;;5035509;28;20162;-53
2022/03/27 04:55:05;;;;;;;17.70;12.10;;;13.80;52.40;;;;;;5036032;28;20021;-51
2022/03/27 04:57:35;;;;;;;17.38;11.70;;;13.80;53.00;;;;;;5034528;28;20025;-49
2022/03/27 05:00:02;;;;;;;19.20;12.45;;;13.80;53.00;;;;;;5035276;28;20025;-53
2022/03/27 05:02:28;;;;;;;20.48;12.05;;;13.80;52.90;;;;;;5034987;28;20022;-49
2022/03/27 05:04:53;;;;;;;15.55;11.40;;;13.80;52.70;;;;;;5018010;28;20407;-50
2022/03/27 05:07:19;;;;;;;14.70;11.35;;;13.80;52.50;;;;;;5034883;28;20060;-50
2022/03/27 05:09:45;;;;;;;20.00;12.23;;;13.90;52.30;;;;;;5035564;28;20413;-50
2022/03/27 05:12:11;;;;;;;17.33;11.75;;;13.90;52.00;;;;;;5035342;28;20433;-52
2022/03/27 05:14:37;;;;;;;14.85;11.25;;;13.80;51.90;;;;;;5034767;28;20514;-52
2022/03/27 05:17:04;;;;;;;15.85;11.98;;;13.70;52.00;;;;;;5035449;28;20100;-51
2022/03/27 05:19:30;;;;;;;18.63;11.15;;;13.60;52.00;;;;;;5034620;28;20026;-52
2022/03/27 05:21:56;;;;;;;15.70;11.80;;;13.60;51.90;;;;;;5035242;28;20021;-48
2022/03/27 05:24:21;;;;;;;16.77;12.27;;;13.70;51.80;;;;;;5034653;28;20022;-53
2022/03/27 05:26:47;;;;;;;17.45;11.90;;;13.80;51.80;;;;;;5035382;28;20361;-53
2022/03/27 05:29:13;;;;;;;16.58;11.93;;;13.60;52.00;;;;;;5017215;28;20174;-52
2022/03/27 05:31:58;;;;;;;15.07;10.98;;;13.60;52.30;;;;;;5034074;28;20087;-50
2022/03/27 05:34:24;;;;;;;17.10;10.95;;;13.40;52.20;;;;;;5016900;28;20024;-49
2022/03/27 05:36:50;;;;;;;16.58;10.30;;;13.40;52.10;;;;;;5017251;28;20028;-53
2022/03/27 05:39:16;;;;;;;15.73;9.70;;;13.50;51.70;;;;;;5034883;28;20029;-51
2022/03/27 05:41:43;;;;;;;16.27;9.38;;;13.40;51.10;;;;;;5017132;28;20056;-51
2022/03/27 05:44:09;;;;;;;15.23;10.20;;;13.40;50.90;;;;;;5017322;28;20029;-49
2022/03/27 05:46:34;;;;;;;17.15;9.98;;;13.50;50.60;;;;;;5034201;28;20036;-49
2022/03/27 05:49:00;;;;;;;12.38;10.02;;;13.50;50.90;;;;;;5016981;28;20025;-52
2022/03/27 05:51:26;;;;;;;13.23;8.80;;;13.50;51.00;;;;;;5034126;28;20108;-53
2022/03/27 05:53:51;;;;;;;17.27;10.40;;;13.40;51.30;;;;;;5033822;28;20025;-52
2022/03/27 05:56:17;;;;;;;14.35;10.43;;;13.40;51.60;;;;;;5017042;28;20018;-49
2022/03/27 05:58:43;;;;;;;14.63;10.05;;;13.40;51.50;;;;;;5033817;28;20093;-54
2022/03/27 06:01:09;;;;;;;16.48;11.25;;;13.50;51.40;;;;;;5016579;28;20061;-51
2022/03/27 06:03:35;;;;;;;16.88;9.98;;;13.50;51.10;;;;;;5033845;28;20060;-52
2022/03/27 06:06:03;;;;;;;13.82;10.05;;;13.60;50.50;;;;;;5035021;28;20017;-54
2022/03/27 06:08:29;;;;;;;18.95;12.10;;;13.60;50.30;;;;;;5033825;28;20105;-51
2022/03/27 06:10:54;;;;;;;16.77;11.02;;;13.60;50.30;;;;;;5034464;28;20024;-53
2022/03/27 06:13:20;;;;;;;17.48;11.50;;;13.60;50.30;;;;;;5033733;28;20049;-67
2022/03/27 06:15:46;;;;;;;17.88;12.38;;;13.60;50.30;;;;;;5034111;28;20455;-53
2022/03/27 06:18:12;;;;;;;19.58;11.50;;;13.70;50.30;;;;;;5034027;28;20022;-50
2022/03/27 06:20:39;;;;;;;19.88;12.52;;;13.70;50.30;;;;;;5034156;28;20450;-50
2022/03/27 06:23:06;;;;;;;19.08;12.95;;;13.80;50.20;;;;;;5034312;28;20067;-48
2022/03/27 06:25:33;;;;;;;20.30;12.57;;;13.80;49.90;;;;;;5016147;28;20029;-49
2022/03/27 06:27:59;;;;;;;18.90;11.77;;;13.90;49.70;;;;;;5034225;28;20033;-51
2022/03/27 06:30:28;;;;;;;15.07;11.25;;;13.80;49.50;;;;;;5033597;28;20443;-52
2022/03/27 06:32:55;;;;;;;16.00;11.55;;;13.80;49.40;;;;;;5034116;28;20517;-52
2022/03/27 06:35:23;;;;;;;17.95;11.52;;;13.80;49.40;;;;;;5033613;28;20025;-65
2022/03/27 06:37:50;;;;;;;15.48;11.82;;;13.80;49.40;;;;;;5033610;28;20470;-51
2022/03/27 06:40:16;;;;;;;18.13;12.25;;;13.90;49.40;;;;;;5033825;28;20489;-56
2022/03/27 06:42:44;;;;;;;19.50;12.00;;;14.00;49.20;;;;;;5015643;28;20245;-53
2022/03/27 06:45:11;;;;;;;18.17;12.13;;;14.10;48.70;;;;;;5033801;28;20030;-49
2022/03/27 06:47:38;;;;;;;21.52;11.68;;;14.30;48.30;;;;;;5033007;28;20427;-52
2022/03/27 06:50:07;;;;;;;18.90;12.40;;;14.40;48.00;;;;;;5033773;28;20017;-51
2022/03/27 06:52:34;;;;;;;15.93;11.55;;;14.40;47.60;;;;;;5031477;28;20044;-60
2022/03/27 06:55:00;;;;;;;14.40;10.63;;;14.40;47.60;;;;;;5015473;28;20025;-51
2022/03/27 06:57:26;;;;;;;15.50;11.25;;;14.50;47.60;;;;;;5032234;28;20425;-50
2022/03/27 07:05:22;;;;;;;14.45;10.38;;;14.50;47.30;;;;;;5032907;28;19959;-51
2022/03/27 07:07:48;;;;;;;16.00;11.23;;;14.50;46.80;;;;;;5031417;28;20041;-47
2022/03/27 07:10:14;;;;;;;16.50;10.88;;;14.40;46.90;;;;;;5033695;28;20109;-50
2022/03/27 07:12:40;;;;;;;13.70;10.30;;;14.50;46.90;;;;;;5033038;28;20128;-48
2022/03/27 07:15:07;;;;;;;16.63;10.57;;;14.60;46.50;;;;;;5032722;28;20033;-49
2022/03/27 07:17:33;;;;;;;14.35;10.48;;;14.60;46.30;;;;;;5030243;28;20021;-53
2022/03/27 07:19:58;;;;;;;14.80;10.95;;;14.60;46.30;;;;;;5014100;28;20458;-51
2022/03/27 07:22:24;;;;;;;13.23;10.45;;;14.60;46.30;;;;;;5030795;28;20044;-62
2022/03/27 07:24:51;;;;;;;15.23;11.00;;;14.70;46.20;;;;;;5031937;28;20465;-49
2022/03/27 07:27:16;;;;;;;14.25;10.68;;;14.70;46.10;;;;;;5031963;28;20143;-48
2022/03/27 07:29:42;;;;;;;14.45;10.90;;;14.80;45.90;;;;;;5031367;28;20073;-50
2022/03/27 07:32:09;;;;;;;21.83;12.93;;;14.90;45.80;;;;;;5031439;28;20022;-47
2022/03/27 07:34:35;;;;;;;15.35;11.60;;;15.10;45.60;;;;;;5031295;28;20052;-50
2022/03/27 07:37:03;;;;;;;15.63;10.85;;;15.20;45.90;;;;;;5013802;28;20059;-46
2022/03/27 07:39:29;;;;;;;14.68;11.27;;;15.30;45.10;;;;;;5013774;28;20450;-47
2022/03/27 07:41:55;;;;;;;19.50;12.15;;;15.20;44.80;;;;;;5031762;28;20032;-51
2022/03/27 07:44:21;;;;;;;14.82;10.90;;;15.30;45.00;;;;;;5013775;28;20513;-46
2022/03/27 07:46:48;;;;;;;16.50;11.30;;;15.40;44.60;;;;;;5031085;28;20024;-47
2022/03/27 07:49:14;;;;;;;15.45;11.80;;;15.60;44.40;;;;;;5031455;28;20497;-49
2022/03/27 07:51:40;;;;;;;17.05;10.98;;;15.70;44.00;;;;;;5030458;28;20025;-61
2022/03/27 07:54:05;;;;;;;15.85;10.45;;;15.80;43.70;;;;;;5031591;28;20063;-50
2022/03/27 07:56:31;;;;;;;14.43;11.00;;;15.80;43.70;;;;;;5013170;28;20025;-48
2022/03/27 07:58:57;;;;;;;17.20;11.25;;;15.90;43.60;;;;;;5031157;28;20060;-51
2022/03/27 08:01:23;;;;;;;15.60;11.68;;;15.90;43.40;;;;;;5031033;28;20048;-53
2022/03/27 08:03:49;;;;;;;14.95;11.38;;;15.90;43.40;;;;;;5030524;28;20192;-52
2022/03/27 08:06:15;;;;;;;16.05;11.57;;;16.00;43.40;;;;;;5030362;28;20456;-46
2022/03/27 08:08:49;;;;;;;16.27;12.32;;;16.10;43.20;;;;;;5029141;28;20067;-54
2022/03/27 08:11:16;;;;;;;16.20;11.75;;;16.30;42.60;;;;;;5012578;28;20033;-47
2022/03/27 08:13:43;;;;;;;23.02;12.15;;;16.10;43.00;;;;;;5029411;28;20455;-54
2022/03/27 08:16:09;;;;;;;16.10;11.77;;;16.20;42.90;;;;;;5029823;28;20030;-47
2022/03/27 08:18:35;;;;;;;16.23;11.57;;;16.40;42.70;;;;;;5011791;28;20025;-53
2022/03/27 08:21:00;;;;;;;16.05;11.48;;;16.40;42.30;;;;;;5012097;28;20030;-46
2022/03/27 08:23:27;;;;;;;15.68;10.65;;;16.30;42.50;;;;;;5029865;28;20409;-64
2022/03/27 08:28:39;;;;;;;17.30;11.18;;;16.20;42.90;;;;;;5029964;28;20083;-55
2022/03/27 08:31:06;;;;;;;19.20;11.55;;;16.50;42.70;;;;;;5012094;28;20462;-56
2022/03/27 08:33:32;;;;;;;15.00;11.10;;;16.60;42.20;;;;;;5029765;28;20455;-51
2022/03/27 08:35:59;;;;;;;14.70;10.98;;;16.70;41.90;;;;;;5031303;28;20036;-55
2022/03/27 08:38:28;;;;;;;18.73;11.57;;;16.80;41.90;;;;;;5031019;28;20025;-48
2022/03/27 08:40:55;;;;;;;16.80;11.73;;;17.00;42.20;;;;;;5012648;28;20064;-48
2022/03/27 08:43:22;;;;;;;15.23;11.75;;;17.20;41.40;;;;;;5013296;28;20052;-52
2022/03/27 08:45:48;;;;;;;15.93;11.95;;;17.50;41.00;;;;;;5012368;28;20029;-51
2022/03/27 08:48:16;;;;;;;14.77;11.75;;;17.60;40.60;;;;;;5030818;28;20061;-50
2022/03/27 08:51:15;;;;;;;14.90;10.90;;;17.60;40.40;;;;;;5011769;28;20033;-56
2022/03/27 08:53:51;;;;;;;14.88;11.05;;;17.90;40.10;;;;;;5012473;28;20032;-52
2022/03/27 08:56:18;;;;;;;16.10;11.00;;;17.90;40.40;;;;;;5013005;28;20458;-51
2022/03/27 08:58:45;;;;;;;14.75;10.73;;;17.80;40.00;;;;;;5012805;28;20057;-55
2022/03/27 09:01:11;;;;;;;17.10;11.73;;;17.90;40.00;;;;;;5031150;28;20037;-51
2022/03/27 09:03:37;;;;;;;20.83;14.40;;;18.20;39.30;;;;;;5012640;28;20029;-49
2022/03/27 09:06:05;;;;;;;17.33;10.98;;;18.00;39.40;;;;;;5031489;28;20032;-49
2022/03/27 09:08:31;;;;;;;14.20;11.57;;;17.90;39.40;;;;;;5030246;28;20049;-47
2022/03/27 09:10:57;;;;;;;16.08;11.85;;;17.80;39.60;;;;;;5031111;28;20116;-55
2022/03/27 09:13:24;;;;;;;19.77;12.20;;;17.70;39.70;;;;;;5030680;28;20073;-49
2022/03/27 09:16:05;;;;;;;19.35;12.02;;;17.80;39.60;;;;;;5012886;28;20406;-49
2022/03/27 09:18:52;;;;;;;16.38;12.75;;;17.90;39.10;;;;;;5012698;28;20029;-47
2022/03/27 09:21:20;;;;;;;16.88;12.73;;;17.90;39.20;;;;;;5031123;28;20489;-51
2022/03/27 09:24:01;;;;;;;18.58;13.15;;;17.80;39.50;;;;;;5030150;28;20365;-49
2022/03/27 09:26:31;;;;;;;17.58;13.63;;;17.60;39.30;;;;;;5012654;28;20397;-64
2022/03/27 09:29:10;;;;;;;19.40;14.45;;;17.50;39.40;;;;;;5031889;28;20033;-49
2022/03/27 09:31:37;;;;;;;18.63;14.02;;;17.60;39.60;;;;;;5034377;28;20025;-55
2022/03/27 09:34:03;;;;;;;19.50;13.98;;;17.90;39.00;;;;;;5016399;28;20034;-48
2022/03/27 09:36:30;;;;;;;19.77;14.85;;;17.90;38.90;;;;;;5015333;28;20030;-65
2022/03/27 09:39:00;;;;;;;18.17;13.80;;;18.00;39.00;;;;;;5016454;28;20037;-51
2022/03/27 09:41:30;;;;;;;20.88;14.38;;;18.30;38.60;;;;;;5016702;28;20398;-65
2022/03/27 09:44:17;;;;;;;17.67;13.25;;;18.40;38.30;;;;;;5034609;28;20124;-51
2022/03/27 09:46:57;;;;;;;18.83;14.27;;;18.50;38.20;;;;;;5015899;28;20028;-51
2022/03/27 09:49:43;;;;;;;19.38;13.68;;;18.70;38.00;;;;;;5034332;28;20021;-57
2022/03/27 09:52:13;;;;;;;18.33;14.50;;;18.90;37.40;;;;;;5034290;28;20076;-53
2022/03/27 09:54:59;;;;;;;19.08;13.98;;;19.00;37.10;;;;;;5033584;28;20025;-50
2022/03/27 09:57:29;;;;;;;17.20;13.93;;;18.80;37.40;;;;;;5033299;28;20055;-50
2022/03/27 09:59:58;;;;;;;15.77;13.23;;;18.80;37.30;;;;;;5033489;28;20029;-49
2022/03/27 10:02:30;;;;;;;22.52;16.60;;;19.00;38.00;;;;;;5015362;28;20041;-50
2022/03/27 10:05:00;;;;;;;20.95;14.45;;;18.90;37.90;;;;;;5029747;28;20033;-54
2022/03/27 10:07:32;;;;;;;20.52;15.90;;;18.70;37.40;;;;;;5007730;28;20033;-52
2022/03/27 10:09:58;;;;;;;23.02;18.17;;;18.40;37.80;;;;;;5012898;28;20479;-49
2022/03/27 10:12:37;;;;;;;17.15;14.35;;;18.30;38.20;;;;;;5010306;28;20062;-54
2022/03/27 10:15:12;;;;;;;20.65;16.33;;;18.20;38.40;;;;;;5028351;28;20025;-52
2022/03/27 10:17:41;;;;;;;18.10;14.40;;;18.00;39.50;;;;;;5029608;28;20628;-53
2022/03/27 10:20:09;;;;;;;17.00;13.25;;;17.70;39.20;;;;;;5012466;28;20117;-49
2022/03/27 10:22:44;;;;;;;19.27;14.35;;;17.70;39.50;;;;;;5014773;28;20083;-55
2022/03/27 10:25:13;;;;;;;26.42;18.27;;;17.60;39.70;;;;;;5026445;28;20049;-64
2022/03/27 10:27:42;;;;;;;20.80;15.85;;;17.50;40.00;;;;;;5027511;28;20033;-64
2022/03/27 10:30:10;;;;;;;18.60;14.93;;;17.10;40.60;;;;;;5012729;28;20060;-52
2022/03/27 10:32:38;;;;;;;22.30;17.17;;;17.20;40.90;;;;;;5027898;28;20025;-50
2022/03/27 10:35:19;;;;;;;18.55;15.45;;;17.20;41.00;;;;;;5010057;28;20044;-64
2022/03/27 10:37:59;;;;;;;18.85;15.05;;;17.30;40.90;;;;;;5029946;28;20529;-54
2022/03/27 10:40:49;;;;;;;16.75;13.25;;;17.50;40.80;;;;;;5012125;28;20079;-50
2022/03/27 10:43:41;;;;;;;19.13;13.60;;;17.60;40.60;;;;;;5013197;28;20040;-49
2022/03/27 10:46:22;;;;;;;18.45;13.00;;;17.70;40.50;;;;;;5012750;28;20071;-50
2022/03/27 10:48:50;;;;;;;20.65;14.27;;;17.70;40.50;;;;;;5009141;28;20355;-64
2022/03/27 10:51:24;;;;;;;21.65;16.85;;;17.70;40.50;;;;;;5031754;28;20030;-50
2022/03/27 10:54:11;;;;;;;18.00;13.40;;;17.50;40.90;;;;;;5027455;28;20060;-49
2022/03/27 10:56:43;;;;;;;16.70;13.63;;;17.60;41.00;;;;;;5007401;28;20574;-63
2022/03/27 10:59:15;;;;;;;16.27;13.32;;;17.50;40.90;;;;;;5010099;28;20035;-62
2022/03/27 11:01:50;;;;;;;17.00;13.63;;;17.50;40.90;;;;;;5026278;28;20107;-59
2022/03/27 11:04:18;;;;;;;47.65;35.72;;;17.50;41.00;;;;;;5029115;28;20037;-53
2022/03/27 11:06:46;;;;;;;15.95;13.55;;;17.50;41.00;;;;;;5030189;28;20332;-53
2022/03/27 11:09:31;;;;;;;16.75;12.98;;;17.60;41.00;;;;;;5029255;28;20478;-56
2022/03/27 11:12:22;;;;;;;23.92;18.83;;;17.70;41.00;;;;;;5008786;28;20053;-56
2022/03/27 11:15:01;;;;;;;17.10;12.65;;;17.80;40.90;;;;;;5010606;28;20026;-52
2022/03/27 11:17:37;;;;;;;20.27;15.30;;;18.00;40.60;;;;;;5027054;28;20030;-56
2022/03/27 11:20:08;;;;;;;20.52;14.75;;;17.80;40.60;;;;;;5011521;28;20037;-53
2022/03/27 11:22:54;;;;;;;19.40;13.38;;;17.80;40.90;;;;;;5004928;28;20033;-64
2022/03/27 11:25:23;;;;;;;13.70;10.68;;;17.90;40.90;;;;;;5030154;28;20032;-56
2022/03/27 11:28:05;;;;;;;13.25;11.02;;;18.20;40.70;;;;;;5027792;28;20025;-54
2022/03/27 11:30:32;;;;;;;12.48;10.50;;;18.30;40.50;;;;;;5028375;28;20093;-55
2022/03/27 11:33:21;;;;;;;13.50;10.63;;;18.20;40.40;;;;;;5030194;28;20437;-55
2022/03/27 11:36:04;;;;;;;15.07;9.25;;;18.40;40.50;;;;;;5027122;28;20521;-57
2022/03/27 11:38:31;;;;;;;30.52;22.20;;;18.60;40.10;;;;;;5030806;28;20113;-66
2022/03/27 11:41:17;;;;;;;21.35;15.63;;;18.40;39.90;;;;;;5031476;28;20037;-58
2022/03/27 11:43:43;;;;;;;19.60;15.15;;;18.40;39.90;;;;;;5013341;28;20029;-50
2022/03/27 11:46:18;;;;;;;27.42;19.65;;;18.30;40.00;;;;;;5013438;28;20080;-51
2022/03/27 11:48:59;;;;;;;17.08;12.52;;;18.40;40.10;;;;;;5030630;28;20057;-58
2022/03/27 11:51:26;;;;;;;15.60;10.73;;;18.50;39.80;;;;;;5012261;28;20026;-62
2022/03/27 11:53:53;;;;;;;12.88;10.48;;;18.70;39.70;;;;;;5013216;28;20477;-55
2022/03/27 11:56:20;;;;;;;11.02;8.90;;;18.80;39.30;;;;;;5013539;28;20124;-54
2022/03/27 11:59:06;;;;;;;13.35;9.73;;;18.80;39.50;;;;;;5013049;28;20029;-50
2022/03/27 12:01:32;;;;;;;15.57;9.52;;;18.70;39.20;;;;;;5013241;28;20422;-57
2022/03/27 12:03:59;;;;;;;14.68;9.65;;;18.80;39.30;;;;;;5030719;28;20041;-53
2022/03/27 12:06:29;;;;;;;15.65;10.80;;;18.90;39.00;;;;;;5013267;28;20116;-50
2022/03/27 12:08:56;;;;;;;12.95;9.90;;;18.90;39.10;;;;;;5029719;28;20041;-53
2022/03/27 12:11:25;;;;;;;13.30;9.90;;;18.90;39.00;;;;;;5008620;28;20064;-48
2022/03/27 12:13:52;;;;;;;12.65;9.43;;;19.00;38.90;;;;;;5025465;28;20273;-58
2022/03/27 12:16:23;;;;;;;19.50;11.80;;;19.10;38.70;;;;;;5021392;28;20474;-56
2022/03/27 12:18:49;;;;;;;16.13;11.02;;;19.30;38.40;;;;;;5005679;28;20025;-60
2022/03/27 12:21:20;;;;;;;18.15;11.55;;;19.30;38.30;;;;;;5023483;28;20093;-55
2022/03/27 12:24:02;;;;;;;18.05;15.10;;;19.20;38.40;;;;;;5004772;28;20171;-52
2022/03/27 12:32:13;;;;;;;15.15;8.98;;;19.50;38.30;;;;;;5031703;28;20081;-47
2022/03/27 12:35:01;;;;;;;10.40;8.27;;;19.40;38.40;;;;;;5030811;28;20025;-50
2022/03/27 12:37:30;;;;;;;11.80;9.77;;;19.40;38.50;;;;;;5030980;28;20036;-50
2022/03/27 12:39:56;;;;;;;14.65;11.57;;;19.30;38.60;;;;;;5009733;28;20034;-51
2022/03/27 12:42:46;;;;;;;17.17;7.65;;;19.40;38.70;;;;;;5026630;28;20332;-53
2022/03/27 12:45:29;;;;;;;10.55;8.50;;;19.50;38.60;;;;;;5031302;28;20060;-52
2022/03/27 12:48:14;;;;;;;10.70;8.52;;;19.40;38.70;;;;;;5011881;28;20029;-54
2022/03/27 12:50:42;;;;;;;11.15;7.18;;;19.50;38.70;;;;;;5028418;28;20201;-54